createdAt,value
2022-11-15T00:01:17.508Z,97978.44
2022-11-15T00:04:28.404Z,97977.63
2022-11-15T00:07:54.477Z,97974.41
2022-11-15T00:11:12.687Z,97975.19
2022-11-15T00:14:32.378Z,97979.47
2022-11-15T00:17:48.010Z,97982.44
2022-11-15T00:21:00.971Z,97983.25
2022-11-15T00:24:11.440Z,97980.31
2022-11-15T00:27:18.745Z,97975.69
2022-11-15T00:30:28.838Z,97966.56
2022-11-15T00:33:37.572Z,97968.13
2022-11-15T00:36:48.426Z,97958.22
2022-11-15T00:40:00.690Z,97961.59
2022-11-15T00:43:09.094Z,97954.66
2022-11-15T00:46:17.425Z,97962.72
2022-11-15T00:49:28.430Z,97959.28
2022-11-15T00:52:38.455Z,97951.53
2022-11-15T00:55:48.706Z,97947.78
2022-11-15T00:58:57.265Z,97940.59
2022-11-15T01:02:09.141Z,97945.53
2022-11-15T01:05:29.241Z,97943.75
2022-11-15T01:08:57.718Z,97939.56
2022-11-15T01:12:26.629Z,97939.72
2022-11-15T01:15:45.071Z,97935.50
2022-11-15T01:18:55.144Z,97943.34
2022-11-15T01:22:14.719Z,97937.22
2022-11-15T01:25:25.168Z,97935.09
2022-11-15T01:28:40.433Z,97926.84
2022-11-15T01:31:59.002Z,97936.25
2022-11-15T01:35:21.654Z,97928.22
2022-11-15T01:42:04.859Z,97929.13
2022-11-15T01:45:21.820Z,97928.84
2022-11-15T01:48:38.597Z,97923.25
2022-11-15T01:51:53.871Z,97921.38
2022-11-15T01:55:12.975Z,97918.44
2022-11-15T01:58:25.273Z,97931.84
2022-11-15T02:01:37.793Z,97918.72
2022-11-15T02:04:48.856Z,97914.19
2022-11-15T02:07:56.377Z,97913.38
2022-11-15T02:11:03.966Z,97920.59
2022-11-15T02:14:16.150Z,97912.03
2022-11-15T02:17:48.266Z,97904.84
2022-11-15T02:21:15.608Z,97893.06
2022-11-15T02:24:53.321Z,97889.88
2022-11-15T02:28:34.508Z,97887.44
2022-11-15T02:31:50.429Z,97877.81
2022-11-15T02:35:07.165Z,97877.56
2022-11-15T02:38:21.562Z,97871.41
2022-11-15T02:41:32.231Z,97876.47
2022-11-15T02:44:42.159Z,97871.09
2022-11-15T02:47:54.801Z,97872.47
2022-11-15T02:51:03.637Z,97870.84
2022-11-15T02:54:11.469Z,97858.81
2022-11-15T02:57:23.243Z,97859.88
2022-11-15T03:00:31.677Z,97855.34
2022-11-15T03:04:00.798Z,97854.53
2022-11-15T03:07:15.958Z,97844.38
2022-11-15T03:10:28.464Z,97848.13
2022-11-15T03:13:45.711Z,97850.78
2022-11-15T03:16:59.409Z,97849.19
2022-11-15T03:20:10.733Z,97837.47
2022-11-15T03:23:19.741Z,97837.97
2022-11-15T03:26:26.980Z,97847.06
2022-11-15T03:29:35.081Z,97837.19
2022-11-15T03:32:40.782Z,97836.13
2022-11-15T03:35:46.829Z,97834.53
2022-11-15T03:38:50.283Z,97829.44
2022-11-15T03:42:03.567Z,97825.44
2022-11-15T03:45:15.179Z,97816.59
2022-11-15T03:48:23.395Z,97812.88
2022-11-15T03:51:27.727Z,97804.34
2022-11-15T03:54:30.476Z,97810.22
2022-11-15T03:57:33.461Z,97811.53
2022-11-15T04:00:36.172Z,97806.19
2022-11-15T04:03:38.779Z,97812.34
2022-11-15T04:06:42.897Z,97808.03
2022-11-15T04:10:11.283Z,97807.47
2022-11-15T04:13:13.894Z,97815.50
2022-11-15T04:16:16.540Z,97803.72
2022-11-15T04:19:36.873Z,97798.84
2022-11-15T04:22:58.594Z,97805.56
2022-11-15T04:26:03.939Z,97813.03
2022-11-15T04:29:24.124Z,97807.44
2022-11-15T04:32:26.768Z,97806.91
2022-11-15T04:35:30.082Z,97805.53
2022-11-15T04:38:34.156Z,97799.13
2022-11-15T04:41:37.045Z,97791.66
2022-11-15T04:44:39.800Z,97787.63
2022-11-15T04:47:45.296Z,97796.47
2022-11-15T04:50:54.388Z,97788.19
2022-11-15T04:53:58.547Z,97784.72
2022-11-15T04:57:01.225Z,97783.63
2022-11-15T05:00:05.356Z,97781.78
2022-11-15T05:03:25.340Z,97781.53
2022-11-15T05:06:27.979Z,97778.34
2022-11-15T05:09:32.016Z,97779.38
2022-11-15T05:12:34.698Z,97778.84
2022-11-15T05:15:37.380Z,97771.66
2022-11-15T05:18:41.649Z,97761.78
2022-11-15T05:21:44.313Z,97758.56
2022-11-15T05:24:48.342Z,97759.41
2022-11-15T05:27:51.011Z,97768.50
2022-11-15T05:30:53.647Z,97767.16
2022-11-15T05:33:57.918Z,97760.75
2022-11-15T05:37:01.258Z,97749.00
2022-11-15T05:40:06.753Z,97750.06
2022-11-15T05:43:09.848Z,97754.91
2022-11-15T05:46:14.653Z,97755.16
2022-11-15T05:49:21.723Z,97747.38
2022-11-15T05:52:30.569Z,97742.03
2022-11-15T05:55:34.852Z,97743.88
2022-11-15T05:58:38.218Z,97743.88
2022-11-15T06:01:41.904Z,97745.72
2022-11-15T06:04:44.818Z,97747.56
2022-11-15T06:07:47.508Z,97747.31
2022-11-15T06:10:51.530Z,97751.06
2022-11-15T06:13:54.241Z,97756.69
2022-11-15T06:16:56.847Z,97759.34
2022-11-15T06:19:59.443Z,97760.38
2022-11-15T06:23:03.733Z,97762.75
2022-11-15T06:26:07.865Z,97756.31
2022-11-15T06:29:10.629Z,97753.63
2022-11-15T06:32:13.376Z,97750.91
2022-11-15T06:35:16.686Z,97751.16
2022-11-15T06:38:19.435Z,97750.34
2022-11-15T06:41:23.436Z,97754.38
2022-11-15T06:44:26.121Z,97748.72
2022-11-15T06:47:29.069Z,97756.22
2022-11-15T06:50:31.841Z,97757.56
2022-11-15T06:53:35.208Z,97762.91
2022-11-15T06:56:39.410Z,97773.34
2022-11-15T06:59:42.356Z,97766.59
2022-11-15T07:02:45.289Z,97775.69
2022-11-15T07:05:54.158Z,97768.94
2022-11-15T07:08:56.797Z,97778.28
2022-11-15T07:12:06.176Z,97768.84
2022-11-15T07:15:11.582Z,97781.66
2022-11-15T07:18:14.269Z,97783.75
2022-11-15T07:21:16.949Z,97775.38
2022-11-15T07:24:19.756Z,97768.06
2022-11-15T07:27:23.927Z,97777.13
2022-11-15T07:30:27.872Z,97772.75
2022-11-15T07:33:30.890Z,97769.91
2022-11-15T07:36:33.796Z,97766.56
2022-11-15T07:39:36.575Z,97764.81
2022-11-15T07:42:56.360Z,97749.94
2022-11-15T07:45:59.845Z,97753.53
2022-11-15T07:49:02.827Z,97749.06
2022-11-15T07:52:05.804Z,97754.03
2022-11-15T10:04:45.446Z,97650.56
2022-11-15T10:07:56.758Z,97649.22
2022-11-15T10:14:29.241Z,97643.56
2022-11-15T10:18:06.119Z,97645.28
2022-11-15T10:21:19.684Z,97639.38
2022-11-15T10:24:29.021Z,97642.88
2022-11-15T10:27:34.952Z,97630.00
2022-11-15T10:30:41.215Z,97626.72
2022-11-15T10:33:43.851Z,97621.94
2022-11-15T10:36:50.347Z,97616.25
2022-11-15T10:40:05.382Z,97612.75
2022-11-15T10:43:17.678Z,97611.63
2022-11-15T10:46:45.681Z,97604.97
2022-11-15T10:49:56.368Z,97609.56
2022-11-15T10:53:00.972Z,97605.25
2022-11-15T10:56:09.924Z,97601.47
2022-11-15T10:59:20.991Z,97594.47
2022-11-15T11:02:34.642Z,97590.22
2022-11-15T11:05:42.254Z,97589.72
2022-11-15T11:09:02.472Z,97586.53
2022-11-15T11:12:07.005Z,97586.69
2022-11-15T11:15:13.990Z,97584.09
2022-11-15T11:18:34.469Z,97588.50
2022-11-15T11:21:47.496Z,97590.88
2022-11-15T11:25:00.875Z,97588.69
2022-11-15T11:28:21.673Z,97583.50
2022-11-15T11:31:30.656Z,97575.59
2022-11-15T11:34:49.159Z,97573.88
2022-11-15T11:37:54.951Z,97563.56
2022-11-15T11:41:05.823Z,97556.97
2022-11-15T11:44:32.095Z,97558.38
2022-11-15T11:47:41.196Z,97550.34
2022-11-15T11:50:47.469Z,97537.22
2022-11-15T11:53:57.348Z,97535.00
2022-11-15T11:57:05.185Z,97536.59
2022-11-15T12:00:40.018Z,97535.47
2022-11-15T12:03:49.901Z,97532.03
2022-11-15T12:06:58.923Z,97524.50
2022-11-15T12:10:06.602Z,97517.53
2022-11-15T12:13:17.577Z,97512.94
2022-11-15T12:16:36.109Z,97510.06
2022-11-15T12:19:39.046Z,97512.94
2022-11-15T12:22:46.179Z,97509.56
2022-11-15T12:25:53.328Z,97512.41
2022-11-15T12:44:03.081Z,97497.69
2022-11-15T12:47:38.237Z,97492.06
2022-11-15T12:51:02.021Z,97493.50
2022-11-15T12:54:53.533Z,97484.94
2022-11-15T12:58:17.619Z,97481.94
2022-11-15T13:01:57.468Z,97481.75
2022-11-15T13:05:33.382Z,97477.59
2022-11-15T13:08:55.424Z,97467.91
2022-11-15T13:11:58.980Z,97458.44
2022-11-15T13:15:02.321Z,97464.78
2022-11-15T13:18:39.610Z,97452.13
2022-11-15T13:22:09.123Z,97443.06
2022-11-15T13:25:21.317Z,97442.75
2022-11-15T13:28:30.930Z,97440.84
2022-11-15T13:31:38.809Z,97435.16
2022-11-15T13:34:52.287Z,97436.06
2022-11-15T13:37:57.192Z,97429.22
2022-11-15T13:41:12.141Z,97423.38
2022-11-15T13:44:22.745Z,97416.06
2022-11-15T13:47:28.758Z,97411.97
2022-11-15T13:50:36.547Z,97409.91
2022-11-15T13:53:43.339Z,97416.72
2022-11-15T13:56:51.797Z,97406.09
2022-11-15T14:00:00.110Z,97406.09
2022-11-15T14:11:39.520Z,97396.28
2022-11-15T14:20:50.243Z,97372.09
2022-11-15T14:24:07.034Z,97379.53
2022-11-15T14:27:39.544Z,97367.03
2022-11-15T14:48:03.648Z,97329.28
2022-11-15T14:51:14.077Z,97325.94
2022-11-15T14:54:18.343Z,97326.59
2022-11-15T14:57:22.844Z,97333.38
2022-11-15T15:00:27.883Z,97322.44
2022-11-15T15:03:33.597Z,97317.38
2022-11-15T15:06:36.290Z,97312.09
2022-11-15T15:09:39.219Z,97308.97
2022-11-15T15:12:43.369Z,97315.75
2022-11-15T15:15:46.290Z,97308.28
2022-11-15T15:18:49.039Z,97295.94
2022-11-15T15:21:51.668Z,97290.63
2022-11-15T15:24:54.302Z,97281.78
2022-11-15T15:27:58.723Z,97273.91
2022-11-15T15:31:03.433Z,97278.66
2022-11-15T15:34:06.132Z,97275.50
2022-11-15T15:37:24.698Z,97271.81
2022-11-15T15:40:39.093Z,97272.13
2022-11-15T15:43:51.150Z,97266.50
2022-11-15T15:47:04.389Z,97269.66
2022-11-15T15:50:23.073Z,97270.47
2022-11-15T15:53:34.322Z,97260.66
2022-11-15T15:56:49.953Z,97258.47
2022-11-15T16:00:07.680Z,97251.63
2022-11-15T16:03:17.279Z,97247.69
2022-11-15T16:06:42.143Z,97244.69
2022-11-15T16:10:04.754Z,97251.03
2022-11-15T16:13:14.493Z,97243.88
2022-11-15T16:16:34.612Z,97231.53
2022-11-15T16:19:48.671Z,97229.00
2022-11-15T16:23:21.518Z,97214.13
2022-11-15T16:26:47.139Z,97210.47
2022-11-15T16:30:09.926Z,97212.06
2022-11-15T16:33:34.415Z,97211.91
2022-11-15T16:36:40.563Z,97206.66
2022-11-15T16:40:04.454Z,97193.50
2022-11-15T16:43:17.789Z,97202.81
2022-11-15T16:46:30.152Z,97201.06
2022-11-15T16:49:45.220Z,97194.38
2022-11-15T16:52:52.581Z,97191.22
2022-11-15T16:56:10.607Z,97180.78
2022-11-15T16:59:23.285Z,97180.59
2022-11-15T17:02:39.239Z,97175.53
2022-11-15T17:06:06.496Z,97170.94
2022-11-15T17:09:19.869Z,97164.75
2022-11-15T17:12:31.140Z,97169.97
2022-11-15T17:15:39.137Z,97157.63
2022-11-15T17:18:51.273Z,97157.63
2022-11-15T17:22:01.265Z,97160.53
2022-11-15T17:25:11.229Z,97166.03
2022-11-15T17:28:18.727Z,97156.38
2022-11-15T17:32:07.416Z,97153.81
2022-11-15T17:35:17.565Z,97150.06
2022-11-15T17:38:28.684Z,97149.25
2022-11-15T17:41:43.291Z,97149.09
2022-11-15T17:44:53.519Z,97148.81
2022-11-15T17:48:00.564Z,97148.22
2022-11-15T17:51:12.467Z,97148.53
2022-11-15T17:54:24.031Z,97146.31
2022-11-15T17:57:33.856Z,97151.88
2022-11-15T18:01:11.063Z,97137.47
2022-11-15T18:04:22.790Z,97148.41
2022-11-15T18:07:39.334Z,97134.78
2022-11-15T18:10:48.857Z,97137.47
2022-11-15T18:14:05.019Z,97138.41
2022-11-15T18:17:16.530Z,97134.91
2022-11-15T18:20:28.885Z,97135.25
2022-11-15T18:23:46.281Z,97133.19
2022-11-15T18:26:59.170Z,97131.75
2022-11-15T18:30:17.849Z,97139.06
2022-11-15T18:33:28.943Z,97130.66
2022-11-15T18:36:37.318Z,97131.59
2022-11-15T18:39:54.216Z,97127.81
2022-11-15T18:43:07.284Z,97142.06
2022-11-15T18:46:20.013Z,97139.22
2022-11-15T18:49:29.218Z,97135.56
2022-11-15T18:52:39.138Z,97135.09
2022-11-15T18:55:51.066Z,97139.38
2022-11-15T18:59:11.645Z,97139.50
2022-11-15T19:02:31.187Z,97136.50
2022-11-15T19:05:42.415Z,97124.63
2022-11-15T19:08:50.213Z,97129.06
2022-11-15T19:12:07.254Z,97124.00
2022-11-15T19:15:43.675Z,97112.09
2022-11-15T19:18:51.332Z,97108.28
2022-11-15T19:22:00.981Z,97101.44
2022-11-15T19:25:15.864Z,97105.41
2022-11-15T19:28:23.037Z,97099.06
2022-11-15T19:31:33.687Z,97093.38
2022-11-15T19:34:42.344Z,97087.97
2022-11-15T19:37:51.108Z,97083.19
2022-11-15T19:41:01.416Z,97077.03
2022-11-15T19:44:11.059Z,97073.69
2022-11-15T19:47:21.737Z,97066.25
2022-11-15T19:50:40.016Z,97073.84
2022-11-15T19:54:00.462Z,97070.84
2022-11-15T19:57:13.938Z,97062.13
2022-11-15T20:00:23.266Z,97068.91
2022-11-15T20:03:33.910Z,97062.25
2022-11-15T20:06:42.033Z,97057.03
2022-11-15T20:09:49.342Z,97051.66
2022-11-15T20:13:01.031Z,97051.66
2022-11-15T20:16:15.045Z,97047.69
2022-11-15T20:19:27.257Z,97040.09
2022-11-15T20:22:46.561Z,97037.41
2022-11-15T20:25:53.427Z,97042.78
2022-11-15T20:29:04.630Z,97048.16
2022-11-15T20:32:13.440Z,97050.53
2022-11-15T20:35:25.102Z,97051.94
2022-11-15T20:38:35.233Z,97048.59
2022-11-15T20:41:49.653Z,97039.72
2022-11-15T20:44:59.381Z,97031.50
2022-11-15T20:48:18.399Z,97038.88
2022-11-15T20:51:29.416Z,97031.78
2022-11-15T20:54:38.934Z,97031.88
2022-11-15T20:57:48.222Z,97022.09
2022-11-15T21:01:07.546Z,97015.44
2022-11-15T21:04:28.455Z,97015.44
2022-11-15T21:07:44.196Z,97006.41
2022-11-15T21:11:11.269Z,97008.28
2022-11-15T21:14:22.142Z,96998.00
2022-11-15T21:17:46.519Z,96991.50
2022-11-15T21:20:58.878Z,96987.22
2022-11-15T21:24:13.055Z,96970.13
2022-11-15T21:27:28.360Z,96977.59
2022-11-15T21:30:43.231Z,96962.75
2022-11-15T21:33:54.015Z,96962.75
2022-11-15T21:37:01.841Z,96957.69
2022-11-15T21:40:12.881Z,96962.84
2022-11-15T21:43:21.197Z,96964.25
2022-11-15T21:46:33.234Z,96966.16
2022-11-15T21:49:46.225Z,96975.47
2022-11-15T21:52:58.120Z,96973.06
2022-11-15T21:56:13.178Z,96968.81
2022-11-15T21:59:22.692Z,96956.66
2022-11-15T22:02:29.126Z,96948.91
2022-11-15T22:05:55.652Z,96953.50
2022-11-15T22:09:10.167Z,96965.81
2022-11-15T22:12:45.125Z,96966.47
2022-11-15T22:16:02.689Z,96957.91
2022-11-15T22:19:51.853Z,96955.25
2022-11-15T22:23:25.186Z,96954.91
2022-11-15T22:27:12.285Z,96955.72
2022-11-15T22:30:33.807Z,96951.16
2022-11-15T22:34:02.703Z,96948.91
2022-11-15T22:37:24.433Z,96935.78
2022-11-15T22:41:11.071Z,96943.53
2022-11-15T22:44:31.684Z,96944.16
2022-11-15T22:48:00.980Z,96948.41
2022-11-15T22:51:14.824Z,96941.78
2022-11-15T22:54:30.476Z,96949.34
2022-11-15T22:57:51.712Z,96935.94
2022-11-15T23:01:16.645Z,96940.34
2022-11-15T23:04:26.438Z,96937.16
2022-11-15T23:07:56.577Z,96934.81
2022-11-15T23:22:46.964Z,96933.34
2022-11-15T23:26:04.517Z,96922.13
2022-11-15T23:29:39.849Z,96924.81
2022-11-15T23:33:08.813Z,96912.78
2022-11-15T23:36:28.049Z,96919.28
2022-11-15T23:44:45.069Z,96918.91
2022-11-15T23:48:01.435Z,96919.84
2022-11-15T23:51:16.295Z,96918.25
